createdAt,value
2022-10-17T00:01:37.758Z,99.90
2022-10-17T00:04:07.590Z,99.90
2022-10-17T00:06:36.742Z,99.90
2022-10-17T00:09:06.015Z,99.90
2022-10-17T00:11:35.286Z,99.90
2022-10-17T00:14:05.245Z,99.90
2022-10-17T00:16:40.420Z,99.90
2022-10-17T00:19:09.713Z,99.90
2022-10-17T00:21:38.920Z,99.90
2022-10-17T00:24:08.308Z,99.90
2022-10-17T00:26:37.385Z,99.90
2022-10-17T00:29:06.722Z,99.90
2022-10-17T00:31:36.677Z,99.90
2022-10-17T00:34:05.814Z,99.90
2022-10-17T00:36:35.849Z,99.90
2022-10-17T00:39:05.628Z,99.90
2022-10-17T00:41:35.848Z,99.90
2022-10-17T00:44:31.819Z,99.90
2022-10-17T00:47:17.687Z,99.90
2022-10-17T00:49:47.290Z,99.90
2022-10-17T00:52:24.666Z,99.90
2022-10-17T00:55:39.278Z,99.90
2022-10-17T00:58:10.172Z,99.90
2022-10-17T01:00:39.547Z,99.90
2022-10-17T01:03:09.073Z,99.90
2022-10-17T01:05:39.736Z,99.90
2022-10-17T01:08:09.977Z,99.90
2022-10-17T01:11:36.340Z,99.90
2022-10-17T01:14:34.476Z,99.90
2022-10-17T01:28:40.626Z,99.90
2022-10-17T01:31:24.018Z,99.90
2022-10-17T01:34:23.232Z,99.90
2022-10-17T01:37:18.527Z,99.90
2022-10-17T01:40:13.863Z,99.90
2022-10-17T01:43:09.126Z,99.90
2022-10-17T01:46:09.193Z,99.90
2022-10-17T01:48:50.331Z,99.90
2022-10-17T01:52:01.411Z,99.90
2022-10-17T01:55:04.994Z,99.90
2022-10-17T01:58:08.928Z,99.90
2022-10-17T02:00:49.532Z,99.90
2022-10-17T02:03:28.899Z,99.90
2022-10-17T02:06:06.456Z,99.90
2022-10-17T02:08:52.765Z,99.90
2022-10-17T02:11:26.107Z,99.90
2022-10-17T02:14:41.499Z,99.90
2022-10-17T02:17:41.868Z,99.90
2022-10-17T02:20:38.768Z,99.90
2022-10-17T02:23:13.528Z,99.90
2022-10-17T02:26:20.930Z,99.90
2022-10-17T02:28:58.556Z,99.90
2022-10-17T02:31:49.521Z,99.90
2022-10-17T02:34:55.852Z,99.90
2022-10-17T02:37:30.793Z,99.90
2022-10-17T02:40:03.314Z,99.90
2022-10-17T02:42:34.376Z,99.90
2022-10-17T02:45:06.614Z,99.90
2022-10-17T02:47:47.763Z,99.90
2022-10-17T02:50:17.257Z,99.90
2022-10-17T02:53:09.249Z,99.90
2022-10-17T02:55:59.154Z,99.90
2022-10-17T02:58:37.031Z,99.90
2022-10-17T03:01:07.335Z,99.90
2022-10-17T03:03:36.508Z,99.90
2022-10-17T03:06:05.767Z,99.90
2022-10-17T03:08:34.975Z,99.90
2022-10-17T03:11:04.308Z,99.90
2022-10-17T03:13:35.072Z,99.90
2022-10-17T03:16:07.288Z,99.90
2022-10-17T03:18:36.501Z,99.90
2022-10-17T03:21:05.902Z,99.90
2022-10-17T03:23:35.076Z,99.80
2022-10-17T03:26:08.905Z,99.40
2022-10-17T03:28:39.277Z,99.60
2022-10-17T03:31:19.172Z,99.40
2022-10-17T03:33:48.352Z,99.90
2022-10-17T03:36:20.331Z,98.20
2022-10-17T03:38:49.981Z,99.90
2022-10-17T03:41:19.166Z,99.30
2022-10-17T03:43:48.410Z,99.10
2022-10-17T03:48:47.498Z,97.00
2022-10-17T03:51:17.069Z,97.70
2022-10-17T03:53:46.305Z,97.50
2022-10-17T03:56:21.920Z,97.40
2022-10-17T03:58:51.633Z,96.60
2022-10-17T04:01:22.062Z,99.50
2022-10-17T04:03:54.620Z,97.30
2022-10-17T04:06:24.970Z,96.10
2022-10-17T04:08:54.166Z,95.40
2022-10-17T04:11:23.627Z,95.10
2022-10-17T04:13:58.165Z,94.60
2022-10-17T04:16:29.906Z,95.20
2022-10-17T04:19:01.813Z,98.50
2022-10-17T04:21:31.608Z,94.90
2022-10-17T04:24:02.365Z,95.10
2022-10-17T04:26:32.548Z,94.60
2022-10-17T04:29:01.643Z,94.50
2022-10-17T04:31:30.987Z,94.30
2022-10-17T04:34:00.203Z,94.40
2022-10-17T04:36:29.382Z,94.80
2022-10-17T04:38:58.545Z,97.10
2022-10-17T04:41:27.675Z,97.60
2022-10-17T04:43:56.724Z,94.80
2022-10-17T04:46:26.224Z,94.60
2022-10-17T04:48:56.169Z,94.90
2022-10-17T04:51:26.623Z,94.90
2022-10-17T04:53:56.591Z,94.70
2022-10-17T04:56:27.258Z,94.00
2022-10-17T04:58:56.674Z,93.10
2022-10-17T05:01:27.241Z,93.80
2022-10-17T05:03:56.989Z,93.60
2022-10-17T05:06:31.259Z,92.00
2022-10-17T05:09:00.929Z,92.60
2022-10-17T05:11:31.592Z,92.70
2022-10-17T05:14:04.176Z,93.20
2022-10-17T05:16:33.381Z,93.30
2022-10-17T05:19:02.612Z,93.40
2022-10-17T05:24:02.619Z,93.40
2022-10-17T05:26:33.006Z,94.20
2022-10-17T05:29:03.994Z,93.40
2022-10-17T05:31:34.023Z,94.00
2022-10-17T05:34:07.044Z,92.30
2022-10-17T05:36:38.369Z,92.20
2022-10-17T05:39:07.600Z,92.50
2022-10-17T05:41:37.132Z,91.40
2022-10-17T05:44:06.591Z,91.40
2022-10-17T05:46:35.776Z,93.90
2022-10-17T05:49:14.790Z,92.50
2022-10-17T05:51:54.344Z,90.80
2022-10-17T05:54:23.498Z,91.30
2022-10-17T05:56:57.504Z,91.70
2022-10-17T05:59:30.192Z,90.40
2022-10-17T06:01:59.484Z,90.60
2022-10-17T06:04:28.838Z,90.30
2022-10-17T06:06:57.994Z,90.10
2022-10-17T06:09:27.261Z,89.40
2022-10-17T06:11:56.390Z,92.20
2022-10-17T06:14:25.555Z,88.70
2022-10-17T06:16:54.723Z,86.30
2022-10-17T06:19:23.861Z,87.70
2022-10-17T06:21:53.166Z,88.80
2022-10-17T06:24:22.406Z,90.90
2022-10-17T06:26:52.230Z,88.50
2022-10-17T06:29:21.500Z,88.10
2022-10-17T06:31:50.713Z,87.90
2022-10-17T06:34:20.097Z,86.90
2022-10-17T06:36:50.097Z,87.50
2022-10-17T06:39:19.606Z,86.80
2022-10-17T06:41:48.771Z,86.90
2022-10-17T06:44:18.832Z,84.00
2022-10-17T06:46:47.922Z,87.40
2022-10-17T06:49:17.039Z,85.30
2022-10-17T06:51:46.181Z,89.00
2022-10-17T06:54:15.335Z,87.60
2022-10-17T06:56:44.508Z,86.50
2022-10-17T06:59:13.739Z,90.20
2022-10-17T07:01:46.148Z,87.20
2022-10-17T07:04:16.357Z,87.40
2022-10-17T07:06:45.691Z,85.10
2022-10-17T07:09:14.995Z,87.20
2022-10-17T07:11:44.512Z,86.00
2022-10-17T07:14:13.550Z,86.20
2022-10-17T07:16:42.652Z,85.30
2022-10-17T07:19:11.749Z,86.20
2022-10-17T07:21:40.889Z,86.60
2022-10-17T07:24:10.139Z,86.50
2022-10-17T07:26:39.340Z,85.70
2022-10-17T07:29:10.814Z,86.20
2022-10-17T07:31:40.137Z,86.60
2022-10-17T07:34:09.227Z,86.00
2022-10-17T07:36:38.362Z,87.50
2022-10-17T07:39:07.616Z,85.40
2022-10-17T07:41:36.770Z,85.70
2022-10-17T07:44:06.453Z,85.80
2022-10-17T07:46:35.691Z,85.20
2022-10-17T07:49:04.976Z,85.10
2022-10-17T07:51:34.588Z,88.70
2022-10-17T07:54:03.941Z,85.60
2022-10-17T07:56:33.116Z,84.40
2022-10-17T07:59:05.144Z,84.70
2022-10-17T08:01:38.048Z,83.80
2022-10-17T08:04:07.164Z,84.30
2022-10-17T08:06:36.397Z,84.60
2022-10-17T08:09:05.810Z,84.60
2022-10-17T08:11:36.892Z,83.80
2022-10-17T08:14:06.127Z,84.00
2022-10-17T08:16:35.210Z,84.00
2022-10-17T08:19:05.724Z,83.10
2022-10-17T08:21:34.999Z,84.00
2022-10-17T08:24:04.243Z,83.40
2022-10-17T08:26:34.084Z,83.90
2022-10-17T08:29:03.684Z,82.30
2022-10-17T08:31:32.936Z,81.20
2022-10-17T08:34:02.160Z,82.60
2022-10-17T08:36:31.408Z,82.30
2022-10-17T08:39:00.731Z,82.60
2022-10-17T08:41:53.977Z,83.40
2022-10-17T08:44:44.237Z,81.50
2022-10-17T08:47:24.257Z,82.80
2022-10-17T08:50:04.293Z,83.30
2022-10-17T08:53:02.033Z,85.00
2022-10-17T08:55:54.739Z,84.20
2022-10-17T08:58:32.915Z,84.60
2022-10-17T09:02:08.564Z,83.80
2022-10-17T09:04:47.042Z,83.70
2022-10-17T09:07:30.091Z,82.50
2022-10-17T09:10:02.987Z,83.30
2022-10-17T09:13:07.984Z,83.00
2022-10-17T09:15:58.512Z,83.20
2022-10-17T09:18:38.390Z,83.20
2022-10-17T09:21:38.275Z,83.90
2022-10-17T09:24:26.374Z,84.10
2022-10-17T09:26:58.661Z,84.30
2022-10-17T09:29:36.047Z,84.30
2022-10-17T09:32:20.552Z,83.70
2022-10-17T09:34:50.084Z,84.30
2022-10-17T09:37:20.260Z,83.10
2022-10-17T09:39:50.019Z,82.40
2022-10-17T09:42:28.530Z,81.90
2022-10-17T09:45:28.014Z,82.70
2022-10-17T09:48:28.013Z,83.90
2022-10-17T09:51:14.622Z,83.90
2022-10-17T09:53:55.079Z,84.40
2022-10-17T09:56:24.480Z,84.70
2022-10-17T09:58:58.701Z,85.50
2022-10-17T10:01:33.227Z,86.20
2022-10-17T10:04:18.325Z,86.90
2022-10-17T10:07:08.235Z,87.60
2022-10-17T10:09:40.475Z,87.70
2022-10-17T10:12:27.972Z,87.90
2022-10-17T10:14:58.706Z,88.10
2022-10-17T10:17:42.884Z,88.80
2022-10-17T10:20:36.786Z,89.30
2022-10-17T10:23:22.435Z,89.70
2022-10-17T10:26:00.555Z,89.80
2022-10-17T10:28:38.889Z,90.30
2022-10-17T10:31:11.355Z,90.60
2022-10-17T10:33:49.445Z,90.60
2022-10-17T10:36:23.913Z,90.90
2022-10-17T10:39:01.315Z,90.90
2022-10-17T10:41:50.077Z,91.20
2022-10-17T10:44:29.955Z,91.30
2022-10-17T10:47:21.322Z,91.40
2022-10-17T10:49:53.835Z,91.60
2022-10-17T10:52:59.484Z,91.90
2022-10-17T10:55:33.460Z,92.20
2022-10-17T10:58:43.084Z,92.40
2022-10-17T11:01:31.394Z,92.50
2022-10-17T11:04:21.440Z,92.80
2022-10-17T11:06:59.893Z,92.90
2022-10-17T11:10:01.682Z,93.20
2022-10-17T11:12:42.529Z,93.30
2022-10-17T11:15:37.949Z,93.40
2022-10-17T11:18:17.810Z,93.70
2022-10-17T11:21:11.204Z,93.90
2022-10-17T11:24:02.846Z,94.00
2022-10-17T11:26:44.423Z,94.10
2022-10-17T11:29:15.337Z,94.40
2022-10-17T11:31:54.158Z,94.60
2022-10-17T11:34:32.882Z,94.80
2022-10-17T11:37:17.196Z,94.90
2022-10-17T11:40:24.602Z,95.00
2022-10-17T11:43:18.452Z,95.00
2022-10-17T11:46:01.197Z,95.30
2022-10-17T11:48:46.571Z,95.60
2022-10-17T11:54:37.578Z,95.80
2022-10-17T11:57:27.952Z,95.70
2022-10-17T12:00:17.823Z,95.80
2022-10-17T12:03:13.048Z,95.80
2022-10-17T12:06:03.287Z,95.90
2022-10-17T12:08:59.145Z,96.20
2022-10-17T12:11:57.662Z,96.20
2022-10-17T12:14:47.477Z,96.30
2022-10-17T12:17:39.945Z,96.40
2022-10-17T12:20:28.253Z,96.50
2022-10-17T12:23:12.447Z,96.60
2022-10-17T12:26:01.674Z,96.90
2022-10-17T12:28:46.404Z,96.90
2022-10-17T12:31:18.464Z,97.40
2022-10-17T12:34:06.027Z,97.70
2022-10-17T12:36:35.046Z,98.00
2022-10-17T12:39:04.172Z,98.20
2022-10-17T12:41:43.324Z,98.20
2022-10-17T12:44:15.623Z,98.10
2022-10-17T12:47:09.051Z,98.30
2022-10-17T12:49:49.671Z,98.40
2022-10-17T12:52:36.120Z,98.50
2022-10-17T12:55:20.646Z,98.90
2022-10-17T12:58:09.057Z,99.00
2022-10-17T13:03:50.401Z,99.10
2022-10-17T13:06:31.128Z,99.70
2022-10-17T13:09:19.114Z,99.80
2022-10-17T13:11:51.339Z,99.90
2022-10-17T13:14:25.160Z,99.90
2022-10-17T13:17:04.130Z,99.90
2022-10-17T13:19:47.495Z,99.90
2022-10-17T13:22:29.497Z,99.90
2022-10-17T13:25:22.236Z,99.90
2022-10-17T13:27:55.452Z,99.90
2022-10-17T13:30:32.444Z,99.90
2022-10-17T13:33:04.213Z,99.90
2022-10-17T13:38:36.691Z,99.90
2022-10-17T13:41:34.851Z,99.90
2022-10-17T13:44:18.658Z,99.90
2022-10-17T13:46:49.057Z,99.90
2022-10-17T13:49:23.184Z,99.90
2022-10-17T13:51:57.388Z,99.90
2022-10-17T13:54:44.508Z,99.90
2022-10-17T13:57:32.769Z,99.90
2022-10-17T14:00:23.957Z,99.90
2022-10-17T14:02:53.185Z,99.90
2022-10-17T14:05:24.629Z,99.90
2022-10-17T14:08:12.779Z,99.90
2022-10-17T14:10:45.759Z,99.90
2022-10-17T14:13:37.240Z,99.90
2022-10-17T14:16:09.348Z,99.90
2022-10-17T14:18:39.924Z,99.90
2022-10-17T14:24:37.406Z,99.90
2022-10-17T14:27:39.167Z,99.90
2022-10-17T14:30:51.791Z,99.90
2022-10-17T14:33:30.937Z,99.90
2022-10-17T14:36:04.193Z,99.90
2022-10-17T14:38:33.802Z,99.90
2022-10-17T14:41:41.442Z,99.90
2022-10-17T14:44:16.028Z,99.90
2022-10-17T14:46:51.228Z,99.90
2022-10-17T14:49:48.048Z,99.90
2022-10-17T14:52:20.281Z,99.90
2022-10-17T14:54:51.797Z,99.90
2022-10-17T14:57:35.399Z,99.90
2022-10-17T15:00:05.640Z,99.90
2022-10-17T15:02:34.856Z,99.90
2022-10-17T15:05:04.150Z,99.90
2022-10-17T15:07:33.388Z,99.90
2022-10-17T15:10:02.791Z,99.90
2022-10-17T15:12:32.773Z,99.90
2022-10-17T15:15:02.059Z,99.90
2022-10-17T15:17:35.513Z,99.90
2022-10-17T15:20:05.461Z,99.90
2022-10-17T15:22:37.510Z,99.90
2022-10-17T15:25:07.475Z,99.90
2022-10-17T15:27:37.000Z,99.90
2022-10-17T15:30:20.691Z,99.90
2022-10-17T15:32:53.282Z,99.90
2022-10-17T15:35:24.062Z,99.90
2022-10-17T15:37:53.723Z,99.90
2022-10-17T15:40:27.169Z,99.90
2022-10-17T15:42:57.475Z,99.90
2022-10-17T15:45:27.181Z,99.90
2022-10-17T15:48:09.276Z,99.90
2022-10-17T15:50:38.436Z,99.90
2022-10-17T15:53:13.262Z,99.90
2022-10-17T15:55:42.883Z,99.90
2022-10-17T15:58:19.856Z,99.90
2022-10-17T16:00:50.081Z,99.90
2022-10-17T16:03:19.307Z,99.90
2022-10-17T16:05:48.716Z,99.90
2022-10-17T16:08:17.853Z,99.90
2022-10-17T16:10:47.225Z,99.90
2022-10-17T16:13:23.392Z,99.90
2022-10-17T16:15:53.359Z,99.90
2022-10-17T16:18:22.528Z,99.90
2022-10-17T16:20:51.839Z,99.90
2022-10-17T16:23:21.250Z,99.90
2022-10-17T16:25:50.498Z,99.90
2022-10-17T16:28:20.569Z,99.90
2022-10-17T16:30:50.190Z,99.90
2022-10-17T16:33:19.655Z,99.90
2022-10-17T16:35:50.324Z,99.90
2022-10-17T16:38:19.764Z,99.90
2022-10-17T16:40:48.987Z,99.90
2022-10-17T16:43:18.216Z,99.90
2022-10-17T16:45:47.470Z,99.90
2022-10-17T16:48:18.719Z,99.90
2022-10-17T16:50:47.952Z,99.90
2022-10-17T16:53:17.102Z,99.90
2022-10-17T16:55:46.361Z,99.90
2022-10-17T16:58:15.533Z,99.90
2022-10-17T17:00:44.790Z,99.90
2022-10-17T17:03:14.046Z,99.90
2022-10-17T17:05:43.277Z,99.90
2022-10-17T17:08:12.795Z,99.90
2022-10-17T17:10:55.094Z,99.90
2022-10-17T17:13:24.346Z,99.90
2022-10-17T17:15:54.934Z,99.90
2022-10-17T17:18:24.587Z,99.90
2022-10-17T17:20:58.647Z,99.90
2022-10-17T17:23:28.128Z,99.90
2022-10-17T17:26:11.689Z,99.90
2022-10-17T17:28:43.231Z,99.90
2022-10-17T17:31:20.835Z,99.90
2022-10-17T17:33:51.529Z,99.90
2022-10-17T17:36:31.180Z,99.90
2022-10-17T17:39:04.664Z,99.90
2022-10-17T17:41:34.974Z,99.90
2022-10-17T17:44:05.720Z,99.90
2022-10-17T17:46:35.237Z,99.90
2022-10-17T17:49:04.426Z,99.90
2022-10-17T17:51:35.709Z,99.90
2022-10-17T17:54:06.127Z,99.90
2022-10-17T17:56:35.374Z,99.90
2022-10-17T17:59:05.741Z,99.90
2022-10-17T18:01:39.404Z,99.90
2022-10-17T18:04:10.969Z,99.90
2022-10-17T18:06:41.555Z,99.90
2022-10-17T18:09:11.292Z,99.90
2022-10-17T18:11:40.530Z,99.90
2022-10-17T18:14:14.801Z,99.90
2022-10-17T18:16:44.328Z,99.90
2022-10-17T18:19:14.118Z,99.90
2022-10-17T18:21:45.254Z,99.90
2022-10-17T18:24:14.392Z,99.90
2022-10-17T18:26:43.542Z,99.90
2022-10-17T18:29:13.850Z,99.90
2022-10-17T18:31:43.115Z,99.90
2022-10-17T18:34:12.295Z,99.90
2022-10-17T18:36:41.348Z,99.90
2022-10-17T18:39:10.496Z,99.90
2022-10-17T18:41:39.757Z,99.90
2022-10-17T18:44:08.850Z,99.90
2022-10-17T18:46:41.821Z,99.90
2022-10-17T18:49:14.341Z,99.90
2022-10-17T18:51:44.364Z,99.90
2022-10-17T18:54:22.190Z,99.90
2022-10-17T18:56:56.391Z,99.90
2022-10-17T18:59:25.616Z,99.90
2022-10-17T19:01:54.888Z,99.90
2022-10-17T19:04:24.159Z,99.90
2022-10-17T19:06:53.400Z,99.90
2022-10-17T19:09:22.614Z,99.90
2022-10-17T19:11:51.751Z,99.90
2022-10-17T19:14:20.824Z,99.90
2022-10-17T19:16:52.840Z,99.90
2022-10-17T19:19:26.251Z,99.90
2022-10-17T19:21:55.631Z,99.90
2022-10-17T19:24:28.074Z,99.90
2022-10-17T19:27:03.646Z,99.90
2022-10-17T19:29:34.003Z,99.90
2022-10-17T19:32:03.691Z,99.90
2022-10-17T19:34:32.790Z,99.90
2022-10-17T19:37:01.818Z,99.90
2022-10-17T19:39:31.036Z,99.90
2022-10-17T19:42:05.936Z,99.90
2022-10-17T19:44:36.849Z,99.90
2022-10-17T19:47:06.001Z,99.90
2022-10-17T19:49:35.443Z,99.90
2022-10-17T19:52:04.797Z,99.90
2022-10-17T19:54:34.155Z,99.90
2022-10-17T19:57:08.032Z,99.90
2022-10-17T19:59:39.612Z,99.90
2022-10-17T20:02:08.885Z,99.90
2022-10-17T20:04:49.549Z,99.90
2022-10-17T20:07:27.214Z,99.90
2022-10-17T20:09:56.372Z,99.90
2022-10-17T20:12:25.567Z,99.90
2022-10-17T20:14:54.780Z,99.90
2022-10-17T20:17:23.968Z,99.90
2022-10-17T20:19:53.526Z,99.90
2022-10-17T20:22:23.225Z,99.90
2022-10-17T20:24:52.431Z,99.90
2022-10-17T20:27:25.518Z,99.90
2022-10-17T20:29:56.790Z,99.90
2022-10-17T20:32:26.039Z,99.90
2022-10-17T20:34:55.574Z,99.90
2022-10-17T20:37:24.941Z,99.90
2022-10-17T20:40:16.466Z,99.90
2022-10-17T20:42:43.187Z,99.90
2022-10-17T20:45:12.749Z,99.90
2022-10-17T20:47:47.028Z,99.90
2022-10-17T20:50:17.386Z,99.90
2022-10-17T20:52:46.428Z,99.90
2022-10-17T20:55:15.641Z,99.90
2022-10-17T20:57:44.715Z,99.90
2022-10-17T21:00:14.675Z,99.90
2022-10-17T21:02:43.911Z,99.90
2022-10-17T21:05:13.271Z,99.90
2022-10-17T21:07:42.609Z,99.90
2022-10-17T21:10:34.268Z,99.90
2022-10-17T21:13:01.430Z,99.90
2022-10-17T21:15:30.645Z,99.90
2022-10-17T21:17:59.843Z,99.90
2022-10-17T21:20:28.978Z,99.90
2022-10-17T21:23:01.342Z,99.90
2022-10-17T21:25:30.454Z,99.90
2022-10-17T21:27:59.572Z,99.90
2022-10-17T21:30:28.715Z,99.90
2022-10-17T21:32:58.401Z,99.90
2022-10-17T21:35:27.958Z,99.90
2022-10-17T21:37:57.068Z,99.90
2022-10-17T21:40:26.229Z,99.90
2022-10-17T21:42:55.426Z,99.90
2022-10-17T21:45:25.805Z,99.90
2022-10-17T21:48:12.292Z,99.90
2022-10-17T21:50:42.465Z,99.90
2022-10-17T21:53:11.782Z,99.90
2022-10-17T21:55:41.039Z,99.90
2022-10-17T21:58:10.325Z,99.90
2022-10-17T22:00:39.615Z,99.90
2022-10-17T22:03:10.460Z,99.90
2022-10-17T22:05:40.014Z,99.90
2022-10-17T22:08:09.342Z,99.90
2022-10-17T22:10:40.120Z,99.90
2022-10-17T22:13:09.703Z,99.90
2022-10-17T22:15:38.908Z,99.90
2022-10-17T22:18:08.116Z,99.90
2022-10-17T22:20:37.583Z,99.90
2022-10-17T22:23:06.684Z,99.90
2022-10-17T22:25:35.899Z,99.90
2022-10-17T22:28:05.338Z,99.90
2022-10-17T22:30:35.657Z,99.90
2022-10-17T22:33:04.890Z,99.90
2022-10-17T22:35:33.989Z,99.90
2022-10-17T22:38:03.116Z,99.90
2022-10-17T22:40:32.307Z,99.90
2022-10-17T22:43:01.398Z,99.90
2022-10-17T22:45:30.520Z,99.90
2022-10-17T22:47:59.923Z,99.90
2022-10-17T22:50:29.107Z,99.90
2022-10-17T22:52:58.169Z,99.90
2022-10-17T22:55:27.836Z,99.90
2022-10-17T22:57:56.993Z,99.90
2022-10-17T23:00:26.095Z,99.90
2022-10-17T23:02:59.219Z,99.90
2022-10-17T23:05:28.291Z,99.90
2022-10-17T23:07:58.404Z,99.90
2022-10-17T23:10:27.602Z,99.90
2022-10-17T23:12:56.724Z,99.90
2022-10-17T23:15:25.851Z,99.90
2022-10-17T23:17:54.968Z,99.90
2022-10-17T23:20:24.117Z,99.90
2022-10-17T23:22:53.419Z,99.90
2022-10-17T23:25:22.619Z,99.90
2022-10-17T23:27:52.112Z,99.90
2022-10-17T23:30:22.059Z,99.90
2022-10-17T23:32:51.244Z,99.90
2022-10-17T23:35:20.522Z,99.90
2022-10-17T23:37:49.742Z,99.90
2022-10-17T23:40:18.956Z,99.90
2022-10-17T23:42:48.147Z,99.90
2022-10-17T23:45:17.580Z,99.90
2022-10-17T23:47:46.701Z,99.90
2022-10-17T23:50:16.978Z,99.90
2022-10-17T23:52:46.110Z,99.90
2022-10-17T23:55:15.293Z,99.90
2022-10-17T23:57:44.376Z,99.90
